Ferndale, WA (98248)

9:15 AM PST on February 10, 2016 (GMT -0800)
Ferndale | | Change Station
CLOSE
Current Station
Personal Weather Station
Location: Ferndale, WA
Elevation: 197 ft
Nearby Weather Stations

Elev 197 ft 48.86 °N, 122.60 °W | Updated 46 seconds ago

Overcast
Overcast
46.2 °F
Feels Like 46 °F
N
2.0
Wind Variable Wind from West
Gusts 2.0 mph

Today
High -- | Low -- °F
--% Chance of Precip.
Yesterday
High -- | Low -- °F
Precip. -- in
Pressure 30.10 in
Visibility 10.0 miles
Clouds Few 7500 ft
Mostly Cloudy 9000 ft
Overcast 12000 ft
Windchill 46 °F
Dew Point 41 °F
Humidity 81%
Rainfall 0.00 in
Snow Depth Not available.
7:27 AM 5:22 PM
Waxing Crescent, 6% visible
METAR KBLI 101653Z 00000KT 10SM FEW075 BKN090 OVC120 07/05 A3008 RMK AO2 RAE10 SLP193 P0000 T00720050
Pressure 30.10 in
Visibility 10.0 miles
Clouds Few 7500 ft
Mostly Cloudy 9000 ft
Overcast 12000 ft
Windchill 46 °F
Dew Point 41 °F
Humidity 81%
Rainfall 0.00 in
Snow Depth Not available.
7:27 AM 5:22 PM
Waxing Crescent, 6% visible
METAR KBLI 101653Z 00000KT 10SM FEW075 BKN090 OVC120 07/05 A3008 RMK AO2 RAE10 SLP193 P0000 T00720050

10-Day Weather Forecast

Almanac

Astronomy

Feb. 10, 2016 Rise Set
Actual Time
Civil Twilight
Nautical Twilight
Astronomical Twilight
Moon
Length of Visible Light
Length of Day
Tomorrow will be .
, % of the Moon is Illuminated

Today's Extremes

State Highs State Lows

Community

WunderPhotos

Upload Photos

1,891,893 photos uploaded!

WunderBlog® & News

Nearby

Air Quality

  Air Quality AQ Index Pollutant
Not available.

Snow Depth

Station Depth Elevation

Earthquake Activity

City Distance Mag. Time & Date
Minimum magnitude displayed is 2.5.

Coastal Water Temperatures

Place Temperature

Stations

Nearby Weather Stations

Station Location Temp. Windchill Dew Point Humidity Wind Precip. Elev Updated Type
                   

Watches & Warnings

There are currently no watches in effect.